createdAt,value
2018-05-04T00:01:38.005Z,61.27
2018-05-04T00:04:06.925Z,63.30
2018-05-04T00:06:35.852Z,58.63
2018-05-04T00:09:04.879Z,58.13
2018-05-04T00:11:33.800Z,58.40
2018-05-04T00:14:02.760Z,61.17
2018-05-04T00:16:31.936Z,61.77
2018-05-04T00:19:00.853Z,58.43
2018-05-04T00:21:29.828Z,67.33
2018-05-04T00:23:58.760Z,64.50
2018-05-04T00:26:27.689Z,51.67
2018-05-04T00:28:56.620Z,53.77
2018-05-04T00:31:25.540Z,54.70
2018-05-04T00:33:54.469Z,57.73
2018-05-04T00:36:23.401Z,57.53
2018-05-04T00:38:52.320Z,55.80
2018-05-04T00:41:21.247Z,52.47
2018-05-04T00:43:50.316Z,57.20
2018-05-04T00:46:19.229Z,58.00
2018-05-04T00:48:48.155Z,59.37
2018-05-04T00:51:17.081Z,65.43
2018-05-04T00:53:52.000Z,53.60
2018-05-04T00:56:20.920Z,55.17
2018-05-04T00:58:49.849Z,50.80
2018-05-04T01:01:18.845Z,54.87
2018-05-04T01:03:47.770Z,45.17
2018-05-04T01:06:16.696Z,58.90
2018-05-04T01:08:45.618Z,58.67
2018-05-04T01:11:14.612Z,57.83
2018-05-04T01:13:43.569Z,50.47
2018-05-04T01:16:12.500Z,46.53
2018-05-04T01:18:41.418Z,49.20
2018-05-04T01:21:10.374Z,49.33
2018-05-04T01:23:39.302Z,47.33
2018-05-04T01:26:08.233Z,51.40
2018-05-04T01:28:37.157Z,48.83
2018-05-04T01:31:06.097Z,51.43
2018-05-04T01:33:35.058Z,46.43
2018-05-04T01:36:03.981Z,45.67
2018-05-04T01:38:32.905Z,43.10
2018-05-04T01:41:01.845Z,47.20
2018-05-04T01:43:30.904Z,45.47
2018-05-04T01:45:59.825Z,47.27
2018-05-04T01:48:28.756Z,41.87
2018-05-04T01:50:57.681Z,38.90
2018-05-04T01:53:26.627Z,39.87
2018-05-04T01:55:55.565Z,34.20
2018-05-04T01:58:24.492Z,40.33
2018-05-04T02:00:53.413Z,42.33
2018-05-04T02:03:22.337Z,31.47
2018-05-04T02:05:51.256Z,30.90
2018-05-04T02:08:20.189Z,37.37
2018-05-04T02:10:49.189Z,37.70
2018-05-04T02:13:18.125Z,33.37
2018-05-04T02:15:47.055Z,33.77
2018-05-04T02:18:15.992Z,30.80
2018-05-04T02:20:44.905Z,26.87
2018-05-04T02:23:13.836Z,32.60
2018-05-04T02:25:42.765Z,31.77
2018-05-04T02:28:11.685Z,30.57
2018-05-04T02:30:40.624Z,24.97
2018-05-04T02:33:09.544Z,30.07
2018-05-04T02:35:38.497Z,31.00
2018-05-04T02:38:07.416Z,27.70
2018-05-04T02:40:36.337Z,28.33
2018-05-04T02:43:05.279Z,37.90
2018-05-04T02:45:34.204Z,30.13
2018-05-04T02:48:03.137Z,28.73
2018-05-04T02:50:32.076Z,39.93
2018-05-04T02:53:01.025Z,40.90
2018-05-04T02:55:29.992Z,34.07
2018-05-04T02:57:58.925Z,29.03
2018-05-04T03:00:27.865Z,29.67
2018-05-04T03:02:56.789Z,22.40
2018-05-04T03:05:25.822Z,39.70
2018-05-04T03:07:54.750Z,28.63
2018-05-04T03:10:24.548Z,30.90
2018-05-04T03:12:53.485Z,29.07
2018-05-04T03:15:22.413Z,24.57
2018-05-04T03:17:51.340Z,26.63
2018-05-04T03:20:20.256Z,18.20
2018-05-04T03:22:49.172Z,23.57
2018-05-04T03:25:18.142Z,24.13
2018-05-04T03:27:47.063Z,26.33
2018-05-04T03:30:15.996Z,26.63
2018-05-04T03:32:44.932Z,26.93
2018-05-04T03:35:13.869Z,19.97
2018-05-04T03:37:42.787Z,16.17
2018-05-04T03:40:11.722Z,30.00
2018-05-04T03:42:40.667Z,21.23
2018-05-04T03:45:09.603Z,24.20
2018-05-04T03:47:38.534Z,21.93
2018-05-04T03:50:07.461Z,25.70
2018-05-04T03:52:36.434Z,28.83
2018-05-04T03:55:05.348Z,19.70
2018-05-04T03:57:40.268Z,34.10
2018-05-04T04:00:15.185Z,37.97
2018-05-04T04:02:49.968Z,18.53
2018-05-04T04:05:18.892Z,22.73
2018-05-04T04:07:47.848Z,23.33
2018-05-04T04:10:16.824Z,25.37
2018-05-04T04:12:45.767Z,25.33
2018-05-04T04:15:14.696Z,28.37
2018-05-04T04:17:43.638Z,18.73
2018-05-04T04:20:12.553Z,17.50
2018-05-04T04:22:41.477Z,29.23
2018-05-04T04:25:10.416Z,43.50
2018-05-04T04:27:39.338Z,26.20
2018-05-04T04:30:08.272Z,46.00
2018-05-04T04:32:37.188Z,28.83
2018-05-04T04:35:06.107Z,40.60
2018-05-04T04:37:35.143Z,33.37
2018-05-04T04:40:04.074Z,43.63
2018-05-04T04:42:32.996Z,50.37
2018-05-04T04:45:01.929Z,40.30
2018-05-04T04:47:30.852Z,35.47
2018-05-04T04:49:59.794Z,39.03
2018-05-04T04:52:28.707Z,36.40
2018-05-04T04:54:57.624Z,23.73
2018-05-04T04:57:26.545Z,25.97
2018-05-04T04:59:55.464Z,33.20
2018-05-04T05:02:24.424Z,35.00
2018-05-04T05:04:53.367Z,50.07
2018-05-04T05:07:22.296Z,39.93
2018-05-04T05:09:51.212Z,34.87
2018-05-04T05:12:20.154Z,44.60
2018-05-04T05:14:49.080Z,42.10
2018-05-04T05:17:18.029Z,35.60
2018-05-04T05:19:46.960Z,36.13
2018-05-04T05:22:15.989Z,32.40
2018-05-04T05:24:44.949Z,28.87
2018-05-04T05:27:13.883Z,42.83
2018-05-04T05:29:42.805Z,32.63
2018-05-04T05:32:11.745Z,41.10
2018-05-04T05:34:40.668Z,33.27
2018-05-04T05:37:09.585Z,41.27
2018-05-04T05:39:38.537Z,30.50
2018-05-04T05:42:07.457Z,34.70
2018-05-04T05:44:36.385Z,31.03
2018-05-04T05:47:05.327Z,26.80
2018-05-04T05:49:34.248Z,33.93
2018-05-04T05:52:03.189Z,31.40
2018-05-04T05:54:32.119Z,34.73
2018-05-04T05:57:01.051Z,37.97
2018-05-04T05:59:29.972Z,30.93
2018-05-04T06:01:59.074Z,29.60
2018-05-04T06:04:27.997Z,36.47
2018-05-04T06:06:56.920Z,28.53
2018-05-04T06:09:25.955Z,33.30
2018-05-04T06:11:54.824Z,29.97
2018-05-04T06:14:23.757Z,31.93
2018-05-04T06:16:52.686Z,35.87
2018-05-04T06:19:21.671Z,41.43
2018-05-04T06:21:50.604Z,29.30
2018-05-04T06:24:19.517Z,25.70
2018-05-04T06:26:48.541Z,42.67
2018-05-04T06:29:17.466Z,34.73
2018-05-04T06:31:46.393Z,29.47
2018-05-04T06:34:15.347Z,36.60
2018-05-04T06:36:44.272Z,28.00
2018-05-04T06:39:13.188Z,30.17
2018-05-04T06:41:42.120Z,34.23
2018-05-04T06:44:11.042Z,35.03
2018-05-04T06:46:40.109Z,33.13
2018-05-04T06:49:09.030Z,24.43
2018-05-04T06:51:37.956Z,38.67
2018-05-04T06:54:06.881Z,26.70
2018-05-04T06:56:35.836Z,27.50
2018-05-04T06:59:04.786Z,26.63
2018-05-04T07:01:34.060Z,28.60
2018-05-04T07:04:02.999Z,28.23
2018-05-04T07:06:32.259Z,29.00
2018-05-04T07:09:01.238Z,30.53
2018-05-04T07:11:30.139Z,35.67
2018-05-04T07:13:59.132Z,28.13
2018-05-04T07:16:28.096Z,31.47
2018-05-04T07:18:57.119Z,35.30
2018-05-04T07:21:26.107Z,29.50
2018-05-04T07:23:55.051Z,39.20
2018-05-04T07:26:24.298Z,30.00
2018-05-04T07:28:53.308Z,24.00
2018-05-04T07:31:22.268Z,22.60
2018-05-04T07:33:51.221Z,34.47
2018-05-04T07:36:20.473Z,22.80
2018-05-04T07:38:49.419Z,31.80
2018-05-04T07:41:18.373Z,28.70
2018-05-04T07:43:47.318Z,25.03
2018-05-04T07:46:16.251Z,20.03
2018-05-04T07:48:45.296Z,23.10
2018-05-04T07:51:14.218Z,27.27
2018-05-04T07:53:43.168Z,26.70
2018-05-04T07:56:12.128Z,27.80
2018-05-04T07:58:41.094Z,28.73
2018-05-04T08:01:10.052Z,28.17
2018-05-04T08:03:39.027Z,23.17
2018-05-04T08:06:07.999Z,26.10
2018-05-04T08:08:36.991Z,19.07
2018-05-04T08:11:05.952Z,25.90
2018-05-04T08:13:34.931Z,25.60
2018-05-04T08:16:03.901Z,30.60
2018-05-04T08:18:32.848Z,24.90
2018-05-04T08:21:01.810Z,29.50
2018-05-04T08:23:30.767Z,29.20
2018-05-04T08:25:59.814Z,19.33
2018-05-04T08:28:28.772Z,15.20
2018-05-04T08:30:57.730Z,21.07
2018-05-04T08:33:26.675Z,56.43
2018-05-04T08:35:55.700Z,56.30
2018-05-04T08:38:24.650Z,27.17
2018-05-04T08:40:53.699Z,36.03
2018-05-04T08:43:22.579Z,20.90
2018-05-04T08:45:51.554Z,30.13
2018-05-04T08:48:20.643Z,36.20
2018-05-04T08:50:49.594Z,25.90
2018-05-04T08:53:18.506Z,19.57
2018-05-04T08:55:47.475Z,29.93
2018-05-04T08:58:16.457Z,30.40
2018-05-04T09:00:45.424Z,29.20
2018-05-04T09:03:14.398Z,28.30
2018-05-04T09:05:43.408Z,30.57
2018-05-04T09:08:12.385Z,736.63
2018-05-04T09:10:41.377Z,404.60
2018-05-04T09:13:10.344Z,284.87
2018-05-04T09:15:39.307Z,79.40
2018-05-04T09:18:08.269Z,160.50
2018-05-04T09:20:37.228Z,155.43
2018-05-04T09:23:06.195Z,114.37
2018-05-04T09:25:35.168Z,82.37
2018-05-04T09:28:04.131Z,101.50
2018-05-04T09:30:33.090Z,54.87
2018-05-04T09:33:02.056Z,70.83
2018-05-04T09:35:31.005Z,65.17
2018-05-04T09:38:00.012Z,35.07
2018-05-04T09:40:28.960Z,52.20
2018-05-04T09:42:57.915Z,41.37
2018-05-04T09:45:27.048Z,33.37
2018-05-04T09:47:56.076Z,32.03
2018-05-04T09:50:25.038Z,63.27
2018-05-04T09:52:53.996Z,54.03
2018-05-04T09:55:22.956Z,34.50
2018-05-04T09:57:51.899Z,28.93
2018-05-04T10:00:20.851Z,36.60
2018-05-04T10:02:49.831Z,33.37
2018-05-04T10:05:18.780Z,32.07
2018-05-04T10:07:47.736Z,35.23
2018-05-04T10:10:16.708Z,34.23
2018-05-04T10:12:45.682Z,30.00
2018-05-04T10:15:14.683Z,26.37
2018-05-04T10:17:43.642Z,23.00
2018-05-04T10:20:12.595Z,29.37
2018-05-04T10:22:41.658Z,30.43
2018-05-04T10:25:10.621Z,23.03
2018-05-04T10:27:39.575Z,23.87
2018-05-04T10:30:08.530Z,15.80
2018-05-04T10:32:37.507Z,21.20
2018-05-04T10:35:06.516Z,24.47
2018-05-04T10:37:35.490Z,21.33
2018-05-04T10:40:04.431Z,19.60
2018-05-04T10:42:33.380Z,23.37
2018-05-04T10:45:02.467Z,20.67
2018-05-04T10:47:31.378Z,16.87
2018-05-04T10:50:00.336Z,14.03
2018-05-04T10:52:29.301Z,16.27
2018-05-04T10:54:58.272Z,9.00
2018-05-04T10:57:27.272Z,19.30
2018-05-04T10:59:56.258Z,16.43
2018-05-04T11:02:25.207Z,17.70
2018-05-04T11:04:54.172Z,11.67
2018-05-04T11:07:23.148Z,17.67
2018-05-04T11:09:52.142Z,24.13
2018-05-04T11:12:21.112Z,16.53
2018-05-04T11:14:50.080Z,16.20
2018-05-04T11:17:19.065Z,13.53
2018-05-04T11:19:48.012Z,19.23
2018-05-04T11:22:16.969Z,22.50
2018-05-04T11:24:45.892Z,12.60
2018-05-04T11:27:14.816Z,16.00
2018-05-04T11:29:43.845Z,23.00
2018-05-04T11:32:12.836Z,21.03
2018-05-04T11:34:41.772Z,15.37
2018-05-04T11:37:10.713Z,13.60
2018-05-04T11:39:39.654Z,14.33
2018-05-04T11:42:08.625Z,16.53
2018-05-04T11:44:37.559Z,20.73
2018-05-04T11:47:06.479Z,16.20
2018-05-04T11:49:35.552Z,18.90
2018-05-04T11:52:04.425Z,15.93
2018-05-04T11:54:33.341Z,16.30
2018-05-04T11:57:02.280Z,11.93
2018-05-04T11:59:31.199Z,22.83
2018-05-04T12:02:00.132Z,18.63
2018-05-04T12:04:29.068Z,14.63
2018-05-04T12:06:58.025Z,21.10
2018-05-04T12:09:26.965Z,22.67
2018-05-04T12:11:55.888Z,15.40
2018-05-04T12:14:24.821Z,14.60
2018-05-04T12:16:53.742Z,20.50
2018-05-04T12:19:22.696Z,18.90
2018-05-04T12:21:51.782Z,15.97
2018-05-04T12:24:20.712Z,17.87
2018-05-04T12:26:49.645Z,18.10
2018-05-04T12:29:18.576Z,21.83
2018-05-04T12:31:47.560Z,16.20
2018-05-04T12:34:16.459Z,13.43
2018-05-04T12:36:45.420Z,11.03
2018-05-04T12:39:14.341Z,15.13
2018-05-04T12:41:43.276Z,13.07
2018-05-04T12:44:12.190Z,16.63
2018-05-04T12:46:41.114Z,17.10
2018-05-04T12:49:10.045Z,15.40
2018-05-04T12:51:38.972Z,8.70
2018-05-04T12:54:07.900Z,19.17
2018-05-04T12:56:36.868Z,12.80
2018-05-04T12:59:05.801Z,12.20
2018-05-04T13:01:34.733Z,19.17
2018-05-04T13:04:03.661Z,14.80
2018-05-04T13:06:32.588Z,23.03
2018-05-04T13:09:01.561Z,10.77
2018-05-04T13:11:30.489Z,18.17
2018-05-04T13:13:59.414Z,18.77
2018-05-04T13:16:28.356Z,11.10
2018-05-04T13:18:57.298Z,14.47
2018-05-04T13:21:26.224Z,29.57
2018-05-04T13:23:55.173Z,27.43
2018-05-04T13:26:24.145Z,15.23
2018-05-04T13:28:53.089Z,18.07
2018-05-04T13:31:22.028Z,11.10
2018-05-04T13:33:50.988Z,20.17
2018-05-04T13:36:19.900Z,17.87
2018-05-04T13:38:48.899Z,58.57
2018-05-04T13:41:17.784Z,259.63
2018-05-04T13:43:46.728Z,89.30
2018-05-04T13:46:15.662Z,59.87
2018-05-04T13:48:44.614Z,70.47
2018-05-04T13:51:13.633Z,71.40
2018-05-04T13:53:42.521Z,40.50
2018-05-04T13:56:11.463Z,24.57
2018-05-04T13:58:40.385Z,37.37
2018-05-04T14:01:09.396Z,27.37
2018-05-04T14:03:38.277Z,27.03
2018-05-04T14:06:07.213Z,23.07
2018-05-04T14:08:36.176Z,24.40
2018-05-04T14:11:05.108Z,18.00
2018-05-04T14:13:34.040Z,24.87
2018-05-04T14:16:02.973Z,23.50
2018-05-04T14:18:31.899Z,23.27
2018-05-04T14:21:00.821Z,18.37
2018-05-04T14:23:29.762Z,19.10
2018-05-04T14:25:58.684Z,28.37
2018-05-04T14:28:27.604Z,20.00
2018-05-04T14:30:56.534Z,16.83
2018-05-04T14:33:25.560Z,17.60
2018-05-04T14:35:54.517Z,19.97
2018-05-04T14:38:23.453Z,16.23
2018-05-04T14:40:52.381Z,19.50
2018-05-04T14:43:21.320Z,22.97
2018-05-04T14:45:50.274Z,24.90
2018-05-04T14:48:19.209Z,19.73
2018-05-04T14:50:48.135Z,15.43
2018-05-04T14:53:17.072Z,13.50
2018-05-04T14:55:46.015Z,703.13
2018-05-04T14:58:15.004Z,324.33
2018-05-04T15:00:43.947Z,243.57
2018-05-04T15:03:13.212Z,152.03
2018-05-04T15:05:42.169Z,109.87
2018-05-04T15:08:11.129Z,145.50
2018-05-04T15:10:40.058Z,108.27
2018-05-04T15:13:09.008Z,108.37
2018-05-04T15:15:37.945Z,65.27
2018-05-04T15:18:06.871Z,58.57
2018-05-04T15:20:35.845Z,104.60
2018-05-04T15:23:04.780Z,61.13
2018-05-04T15:25:33.705Z,45.47
2018-05-04T15:28:02.640Z,58.83
2018-05-04T15:30:31.585Z,54.83
2018-05-04T15:33:00.519Z,64.07
2018-05-04T15:35:29.441Z,39.40
2018-05-04T15:37:58.393Z,53.47
2018-05-04T15:40:27.437Z,45.27
2018-05-04T15:42:56.322Z,64.80
2018-05-04T15:45:25.262Z,51.47
2018-05-04T15:47:54.193Z,59.13
2018-05-04T15:50:28.944Z,53.07
2018-05-04T15:52:57.872Z,56.23
2018-05-04T15:55:26.801Z,297.07
2018-05-04T15:57:55.768Z,454.10
2018-05-04T16:00:24.963Z,371.07
2018-05-04T16:02:53.934Z,340.70
2018-05-04T16:05:22.892Z,289.90
2018-05-04T16:07:51.845Z,206.40
2018-05-04T16:10:20.782Z,215.27
2018-05-04T16:12:49.742Z,144.07
2018-05-04T16:15:18.677Z,216.07
2018-05-04T16:17:47.615Z,111.47
2018-05-04T16:20:16.551Z,165.47
2018-05-04T16:22:45.513Z,155.27
2018-05-04T16:25:14.445Z,97.73
2018-05-04T16:27:43.407Z,103.13
2018-05-04T16:30:12.386Z,83.13
2018-05-04T16:32:41.314Z,88.70
2018-05-04T16:35:10.264Z,48.83
2018-05-04T16:37:39.190Z,119.93
2018-05-04T16:40:08.132Z,75.80
2018-05-04T16:42:37.102Z,91.63
2018-05-04T16:45:06.158Z,71.07
2018-05-04T16:47:41.061Z,462.57
2018-05-04T16:50:10.029Z,749.13
2018-05-04T16:52:38.962Z,240.63
2018-05-04T16:55:08.096Z,360.77
2018-05-04T16:57:39.890Z,73.43
2018-05-04T17:00:08.852Z,543.47
2018-05-04T17:02:37.793Z,400.77
2018-05-04T17:05:06.725Z,166.47
2018-05-04T17:07:35.658Z,452.67
2018-05-04T17:10:04.658Z,585.60
2018-05-04T17:12:33.665Z,517.70
2018-05-04T17:15:02.661Z,423.57
2018-05-04T17:17:31.645Z,478.43
2018-05-04T17:20:00.580Z,448.73
2018-05-04T17:22:29.524Z,319.33
2018-05-04T17:24:58.479Z,285.00
2018-05-04T17:27:28.021Z,423.77
2018-05-04T17:29:56.954Z,453.20
2018-05-04T17:32:25.893Z,539.00
2018-05-04T17:34:54.824Z,497.20
2018-05-04T17:37:23.775Z,477.57
2018-05-04T17:39:52.716Z,504.97
2018-05-04T17:42:21.657Z,333.97
2018-05-04T17:44:50.703Z,409.73
2018-05-04T17:47:19.663Z,145.00
2018-05-04T17:49:48.589Z,240.73
2018-05-04T17:52:17.516Z,181.17
2018-05-04T17:54:46.456Z,627.57
2018-05-04T17:57:15.399Z,413.03
2018-05-04T17:59:44.321Z,142.87
2018-05-04T18:02:13.282Z,40.73
2018-05-04T18:04:42.236Z,306.07
2018-05-04T18:07:11.489Z,179.27
2018-05-04T18:09:40.427Z,108.73
2018-05-04T18:12:09.352Z,123.80
2018-05-04T18:14:38.312Z,33.63
2018-05-04T18:17:07.261Z,169.70
2018-05-04T18:19:36.198Z,108.40
2018-05-04T18:22:05.163Z,292.27
2018-05-04T18:24:34.104Z,187.10
2018-05-04T18:27:03.025Z,47.83
2018-05-04T18:29:32.656Z,118.23
2018-05-04T18:32:01.628Z,186.57
2018-05-04T18:34:30.582Z,285.80
2018-05-04T18:36:59.504Z,71.63
2018-05-04T18:39:28.436Z,95.90
2018-05-04T18:41:57.392Z,28.90
2018-05-04T18:44:26.380Z,169.77
2018-05-04T18:46:55.349Z,72.93
2018-05-04T18:49:24.288Z,30.70
2018-05-04T18:51:53.229Z,55.00
2018-05-04T18:54:22.195Z,39.23
2018-05-04T18:56:51.177Z,40.17
2018-05-04T18:59:20.108Z,32.83
2018-05-04T19:01:49.043Z,28.97
2018-05-04T19:04:18.004Z,24.10
2018-05-04T19:06:46.929Z,17.17
2018-05-04T19:09:15.919Z,53.20
2018-05-04T19:11:44.812Z,54.93
2018-05-04T19:14:13.782Z,23.67
2018-05-04T19:16:42.709Z,24.00
2018-05-04T19:19:11.640Z,17.00
2018-05-04T19:21:40.568Z,47.90
2018-05-04T19:24:09.501Z,129.57
2018-05-04T19:26:38.484Z,62.37
2018-05-04T19:29:07.422Z,62.17
2018-05-04T19:31:36.374Z,53.57
2018-05-04T19:34:05.298Z,40.90
2018-05-04T19:36:34.229Z,27.80
2018-05-04T19:39:03.157Z,25.27
2018-05-04T19:41:32.096Z,31.17
2018-05-04T19:44:01.040Z,17.37
2018-05-04T19:46:30.277Z,26.10
2018-05-04T19:48:59.200Z,19.73
2018-05-04T19:51:28.168Z,31.60
2018-05-04T19:53:57.148Z,27.13
2018-05-04T19:56:26.076Z,34.57
2018-05-04T19:58:55.076Z,22.17
2018-05-04T20:01:23.988Z,119.10
2018-05-04T20:03:52.928Z,97.57
2018-05-04T20:06:21.880Z,67.53
2018-05-04T20:08:50.825Z,48.27
2018-05-04T20:11:19.839Z,40.53
2018-05-04T20:13:48.787Z,28.83
2018-05-04T20:16:17.741Z,62.60
2018-05-04T20:18:46.665Z,36.87
2018-05-04T20:21:15.661Z,22.23
2018-05-04T20:23:44.596Z,34.20
2018-05-04T20:26:13.516Z,18.60
2018-05-04T20:28:42.468Z,34.73
2018-05-04T20:31:11.397Z,40.63
2018-05-04T20:33:40.353Z,34.83
2018-05-04T20:36:09.292Z,30.60
2018-05-04T20:38:43.485Z,26.53
2018-05-04T20:41:12.457Z,28.53
2018-05-04T20:43:41.396Z,32.17
2018-05-04T20:46:10.392Z,34.03
2018-05-04T20:48:39.369Z,51.90
2018-05-04T20:51:08.301Z,55.83
2018-05-04T20:53:37.282Z,30.50
2018-05-04T20:56:06.309Z,35.30
2018-05-04T20:58:35.286Z,25.60
2018-05-04T21:01:04.248Z,30.70
2018-05-04T21:03:33.208Z,32.77
2018-05-04T21:06:02.185Z,28.67
2018-05-04T21:08:31.181Z,30.63
2018-05-04T21:11:00.125Z,20.43
2018-05-04T21:13:29.140Z,28.47
2018-05-04T21:15:58.065Z,38.47
2018-05-04T21:18:27.005Z,22.17
2018-05-04T21:20:55.930Z,23.57
2018-05-04T21:23:24.905Z,24.77
2018-05-04T21:25:53.857Z,30.63
2018-05-04T21:28:22.785Z,28.87
2018-05-04T21:30:51.761Z,28.40
2018-05-04T21:33:20.949Z,32.97
2018-05-04T21:35:49.880Z,34.10
2018-05-04T21:38:19.518Z,31.27
2018-05-04T21:40:48.454Z,36.83
2018-05-04T21:43:17.392Z,26.53
2018-05-04T21:45:46.327Z,34.70
2018-05-04T21:48:15.290Z,26.80
2018-05-04T21:50:44.217Z,26.90
2018-05-04T21:53:13.152Z,25.77
2018-05-04T21:55:42.101Z,16.73
2018-05-04T21:58:11.021Z,22.87
2018-05-04T22:00:39.961Z,21.90
2018-05-04T22:03:08.892Z,27.33
2018-05-04T22:05:37.821Z,21.60
2018-05-04T22:08:06.745Z,33.30
2018-05-04T22:10:35.713Z,28.10
2018-05-04T22:13:04.640Z,19.10
2018-05-04T22:15:33.608Z,13.87
2018-05-04T22:18:02.504Z,17.60
2018-05-04T22:20:31.506Z,13.00
2018-05-04T22:23:00.383Z,17.90
2018-05-04T22:25:29.313Z,23.00
2018-05-04T22:27:58.273Z,12.10
2018-05-04T22:30:27.223Z,14.73
2018-05-04T22:32:56.140Z,16.47
2018-05-04T22:35:25.081Z,16.40
2018-05-04T22:37:54.000Z,23.87
2018-05-04T22:40:22.914Z,19.57
2018-05-04T22:42:51.852Z,11.50
2018-05-04T22:45:20.780Z,20.37
2018-05-04T22:47:49.704Z,19.10
2018-05-04T22:50:18.628Z,29.57
2018-05-04T22:52:47.603Z,16.97
2018-05-04T22:55:16.524Z,25.73
2018-05-04T22:57:45.452Z,18.13
2018-05-04T23:00:14.379Z,13.53
2018-05-04T23:02:43.292Z,21.40
2018-05-04T23:05:12.239Z,26.67
2018-05-04T23:07:41.557Z,16.00
2018-05-04T23:10:10.477Z,14.63
2018-05-04T23:12:39.390Z,18.47
2018-05-04T23:15:08.317Z,14.00
2018-05-04T23:17:37.239Z,16.50
2018-05-04T23:20:06.160Z,22.83
2018-05-04T23:22:35.102Z,22.83
2018-05-04T23:25:04.024Z,18.73
2018-05-04T23:27:32.957Z,24.47
2018-05-04T23:30:01.896Z,22.63
2018-05-04T23:32:30.832Z,17.00
2018-05-04T23:34:59.750Z,22.03
2018-05-04T23:37:28.686Z,25.40
2018-05-04T23:39:57.596Z,22.63
2018-05-04T23:42:26.509Z,23.60
2018-05-04T23:44:55.444Z,24.83
2018-05-04T23:47:24.364Z,12.53
2018-05-04T23:49:53.292Z,20.97
2018-05-04T23:52:22.209Z,13.67
2018-05-04T23:54:51.164Z,14.33
2018-05-04T23:57:20.084Z,22.40
2018-05-04T23:59:49.345Z,28.13
